sensor_id;sensor_type;location;lat;lon;timestamp;P1;durP1;ratioP1;P2;durP2;ratioP2
14708;SDS011;7445;50.774;4.944;2022-10-31T06:54:38;99.97;;;77.87;;
14708;SDS011;7445;50.774;4.944;2022-10-31T06:57:04;43.93;;;37.23;;
14708;SDS011;7445;50.774;4.944;2022-10-31T06:59:30;37.17;;;28.53;;
14708;SDS011;7445;50.774;4.944;2022-10-31T07:01:57;42.53;;;36.53;;
14708;SDS011;7445;50.774;4.944;2022-10-31T07:04:23;41.70;;;33.73;;
14708;SDS011;7445;50.774;4.944;2022-10-31T07:06:50;28.80;;;22.80;;
14708;SDS011;7445;50.774;4.944;2022-10-31T07:09:17;23.17;;;20.70;;
14708;SDS011;7445;50.774;4.944;2022-10-31T07:11:43;29.43;;;20.63;;
14708;SDS011;7445;50.774;4.944;2022-10-31T07:14:08;26.00;;;20.97;;
14708;SDS011;7445;50.774;4.944;2022-10-31T07:16:34;27.57;;;20.77;;
14708;SDS011;7445;50.774;4.944;2022-10-31T07:19:00;29.87;;;21.43;;
14708;SDS011;7445;50.774;4.944;2022-10-31T07:21:25;28.70;;;20.50;;
14708;SDS011;7445;50.774;4.944;2022-10-31T07:23:51;33.03;;;22.90;;
14708;SDS011;7445;50.774;4.944;2022-10-31T07:26:16;28.77;;;21.70;;
14708;SDS011;7445;50.774;4.944;2022-10-31T07:28:42;32.80;;;24.83;;
14708;SDS011;7445;50.774;4.944;2022-10-31T07:31:08;26.67;;;21.50;;
14708;SDS011;7445;50.774;4.944;2022-10-31T07:33:33;32.93;;;21.23;;
14708;SDS011;7445;50.774;4.944;2022-10-31T07:35:59;24.90;;;20.77;;
14708;SDS011;7445;50.774;4.944;2022-10-31T07:38:25;22.50;;;19.93;;
14708;SDS011;7445;50.774;4.944;2022-10-31T07:40:51;29.37;;;21.83;;
14708;SDS011;7445;50.774;4.944;2022-10-31T07:43:19;31.93;;;23.37;;
14708;SDS011;7445;50.774;4.944;2022-10-31T07:45:49;34.03;;;24.37;;
14708;SDS011;7445;50.774;4.944;2022-10-31T07:48:18;26.77;;;22.00;;
14708;SDS011;7445;50.774;4.944;2022-10-31T07:50:44;25.67;;;22.63;;
14708;SDS011;7445;50.774;4.944;2022-10-31T07:53:11;27.00;;;21.70;;
14708;SDS011;7445;50.774;4.944;2022-10-31T07:55:37;26.60;;;21.00;;
14708;SDS011;7445;50.774;4.944;2022-10-31T07:58:05;27.63;;;23.07;;
14708;SDS011;7445;50.774;4.944;2022-10-31T08:00:33;28.50;;;21.53;;
14708;SDS011;7445;50.774;4.944;2022-10-31T08:03:01;23.77;;;21.27;;
14708;SDS011;7445;50.774;4.944;2022-10-31T08:05:31;24.27;;;21.07;;
14708;SDS011;7445;50.774;4.944;2022-10-31T08:07:57;24.93;;;22.30;;
14708;SDS011;7445;50.774;4.944;2022-10-31T08:10:23;25.63;;;21.10;;
14708;SDS011;7445;50.774;4.944;2022-10-31T08:12:57;23.50;;;20.43;;
14708;SDS011;7445;50.774;4.944;2022-10-31T08:15:24;26.03;;;21.40;;
14708;SDS011;7445;50.774;4.944;2022-10-31T08:17:51;35.50;;;22.57;;
14708;SDS011;7445;50.774;4.944;2022-10-31T08:20:17;37.53;;;29.83;;
14708;SDS011;7445;50.774;4.944;2022-10-31T08:22:42;29.10;;;22.70;;
14708;SDS011;7445;50.774;4.944;2022-10-31T08:25:08;30.90;;;23.17;;
14708;SDS011;7445;50.774;4.944;2022-10-31T08:27:34;27.57;;;22.77;;
14708;SDS011;7445;50.774;4.944;2022-10-31T08:30:00;32.93;;;23.93;;
14708;SDS011;7445;50.774;4.944;2022-10-31T08:32:25;28.77;;;25.87;;
14708;SDS011;7445;50.774;4.944;2022-10-31T08:34:51;29.27;;;22.33;;
14708;SDS011;7445;50.774;4.944;2022-10-31T08:37:16;23.60;;;20.37;;
14708;SDS011;7445;50.774;4.944;2022-10-31T08:39:45;23.87;;;21.27;;
14708;SDS011;7445;50.774;4.944;2022-10-31T08:42:12;23.53;;;21.03;;
14708;SDS011;7445;50.774;4.944;2022-10-31T08:44:38;32.60;;;22.07;;
14708;SDS011;7445;50.774;4.944;2022-10-31T08:47:03;28.17;;;22.30;;
14708;SDS011;7445;50.774;4.944;2022-10-31T08:49:29;26.33;;;21.77;;
14708;SDS011;7445;50.774;4.944;2022-10-31T08:51:55;26.70;;;23.87;;
14708;SDS011;7445;50.774;4.944;2022-10-31T08:54:21;28.17;;;24.40;;
14708;SDS011;7445;50.774;4.944;2022-10-31T08:56:46;24.97;;;21.77;;
14708;SDS011;7445;50.774;4.944;2022-10-31T08:59:12;26.03;;;23.37;;
14708;SDS011;7445;50.774;4.944;2022-10-31T09:01:37;28.47;;;25.30;;
14708;SDS011;7445;50.774;4.944;2022-10-31T09:04:03;25.90;;;23.10;;
14708;SDS011;7445;50.774;4.944;2022-10-31T09:06:29;28.07;;;23.37;;
14708;SDS011;7445;50.774;4.944;2022-10-31T09:08:54;35.10;;;24.33;;
14708;SDS011;7445;50.774;4.944;2022-10-31T09:11:20;24.93;;;22.43;;
14708;SDS011;7445;50.774;4.944;2022-10-31T09:13:45;25.67;;;22.93;;
14708;SDS011;7445;50.774;4.944;2022-10-31T09:16:11;26.23;;;22.33;;
14708;SDS011;7445;50.774;4.944;2022-10-31T09:18:37;29.07;;;21.63;;
14708;SDS011;7445;50.774;4.944;2022-10-31T09:21:02;24.20;;;21.40;;
14708;SDS011;7445;50.774;4.944;2022-10-31T09:23:28;25.93;;;22.53;;
14708;SDS011;7445;50.774;4.944;2022-10-31T09:25:54;24.00;;;21.40;;
14708;SDS011;7445;50.774;4.944;2022-10-31T09:28:22;28.50;;;22.70;;
14708;SDS011;7445;50.774;4.944;2022-10-31T09:30:51;22.87;;;20.00;;
14708;SDS011;7445;50.774;4.944;2022-10-31T09:33:18;24.30;;;21.80;;
14708;SDS011;7445;50.774;4.944;2022-10-31T09:35:44;25.03;;;21.57;;
14708;SDS011;7445;50.774;4.944;2022-10-31T09:38:10;25.60;;;23.03;;
14708;SDS011;7445;50.774;4.944;2022-10-31T09:41:02;23.93;;;21.57;;
14708;SDS011;7445;50.774;4.944;2022-10-31T09:43:51;25.47;;;22.93;;
14708;SDS011;7445;50.774;4.944;2022-10-31T09:49:24;28.97;;;22.80;;
14708;SDS011;7445;50.774;4.944;2022-10-31T09:52:00;28.93;;;23.37;;
14708;SDS011;7445;50.774;4.944;2022-10-31T09:54:51;25.43;;;22.57;;
14708;SDS011;7445;50.774;4.944;2022-10-31T09:57:23;26.77;;;20.93;;
14708;SDS011;7445;50.774;4.944;2022-10-31T09:59:53;32.47;;;23.13;;
14708;SDS011;7445;50.774;4.944;2022-10-31T10:05:10;27.77;;;24.67;;
14708;SDS011;7445;50.774;4.944;2022-10-31T10:07:49;27.13;;;24.23;;
14708;SDS011;7445;50.774;4.944;2022-10-31T10:13:05;27.30;;;23.90;;
14708;SDS011;7445;50.774;4.944;2022-10-31T10:16:00;27.07;;;22.33;;
14708;SDS011;7445;50.774;4.944;2022-10-31T10:27:05;27.53;;;23.67;;
14708;SDS011;7445;50.774;4.944;2022-10-31T10:30:14;30.37;;;23.13;;
14708;SDS011;7445;50.774;4.944;2022-10-31T10:32:56;29.37;;;22.80;;
14708;SDS011;7445;50.774;4.944;2022-10-31T10:35:25;33.47;;;22.73;;
14708;SDS011;7445;50.774;4.944;2022-10-31T10:38:43;28.57;;;21.40;;
14708;SDS011;7445;50.774;4.944;2022-10-31T10:41:07;25.27;;;19.70;;
14708;SDS011;7445;50.774;4.944;2022-10-31T10:43:38;29.13;;;21.13;;
14708;SDS011;7445;50.774;4.944;2022-10-31T10:52:06;15.30;;;13.87;;
14708;SDS011;7445;50.774;4.944;2022-10-31T11:00:26;13.53;;;11.43;;
14708;SDS011;7445;50.774;4.944;2022-10-31T11:02:54;23.20;;;13.27;;
14708;SDS011;7445;50.774;4.944;2022-10-31T11:05:25;16.73;;;12.57;;
14708;SDS011;7445;50.774;4.944;2022-10-31T11:07:53;12.63;;;11.30;;
14708;SDS011;7445;50.774;4.944;2022-10-31T11:10:19;17.00;;;12.60;;
14708;SDS011;7445;50.774;4.944;2022-10-31T11:12:56;14.30;;;11.43;;
14708;SDS011;7445;50.774;4.944;2022-10-31T11:15:52;16.37;;;12.43;;
14708;SDS011;7445;50.774;4.944;2022-10-31T11:18:27;20.30;;;12.77;;
14708;SDS011;7445;50.774;4.944;2022-10-31T11:21:00;22.03;;;12.83;;
14708;SDS011;7445;50.774;4.944;2022-10-31T11:23:28;16.30;;;12.30;;
14708;SDS011;7445;50.774;4.944;2022-10-31T11:25:55;13.93;;;10.80;;
14708;SDS011;7445;50.774;4.944;2022-10-31T11:28:25;13.37;;;12.07;;
14708;SDS011;7445;50.774;4.944;2022-10-31T11:30:55;13.77;;;10.93;;
14708;SDS011;7445;50.774;4.944;2022-10-31T11:36:13;19.03;;;12.23;;
14708;SDS011;7445;50.774;4.944;2022-10-31T11:38:42;18.47;;;11.80;;
14708;SDS011;7445;50.774;4.944;2022-10-31T11:43:37;14.07;;;10.00;;
14708;SDS011;7445;50.774;4.944;2022-10-31T11:46:15;17.33;;;12.37;;
14708;SDS011;7445;50.774;4.944;2022-10-31T11:48:49;19.37;;;11.63;;
14708;SDS011;7445;50.774;4.944;2022-10-31T11:51:22;17.63;;;10.40;;
14708;SDS011;7445;50.774;4.944;2022-10-31T11:53:51;14.07;;;8.60;;
14708;SDS011;7445;50.774;4.944;2022-10-31T11:56:18;17.17;;;11.40;;
14708;SDS011;7445;50.774;4.944;2022-10-31T11:58:56;16.67;;;11.57;;
14708;SDS011;7445;50.774;4.944;2022-10-31T12:01:25;21.17;;;10.30;;
14708;SDS011;7445;50.774;4.944;2022-10-31T12:04:08;26.10;;;11.80;;
14708;SDS011;7445;50.774;4.944;2022-10-31T12:06:44;26.77;;;11.33;;
14708;SDS011;7445;50.774;4.944;2022-10-31T12:09:25;21.27;;;12.37;;
14708;SDS011;7445;50.774;4.944;2022-10-31T12:17:20;15.17;;;11.03;;
14708;SDS011;7445;50.774;4.944;2022-10-31T12:28:12;14.90;;;13.33;;
14708;SDS011;7445;50.774;4.944;2022-10-31T12:31:01;30.00;;;21.90;;
14708;SDS011;7445;50.774;4.944;2022-10-31T12:42:01;16.03;;;13.57;;
14708;SDS011;7445;50.774;4.944;2022-10-31T12:45:03;15.20;;;12.97;;
14708;SDS011;7445;50.774;4.944;2022-10-31T12:47:37;19.47;;;11.53;;
14708;SDS011;7445;50.774;4.944;2022-10-31T12:53:30;18.13;;;13.93;;
14708;SDS011;7445;50.774;4.944;2022-10-31T12:56:10;14.87;;;13.37;;
14708;SDS011;7445;50.774;4.944;2022-10-31T12:59:08;20.03;;;13.80;;
14708;SDS011;7445;50.774;4.944;2022-10-31T13:01:42;18.13;;;12.63;;
14708;SDS011;7445;50.774;4.944;2022-10-31T13:04:24;20.90;;;14.20;;
14708;SDS011;7445;50.774;4.944;2022-10-31T13:07:00;17.63;;;13.97;;
14708;SDS011;7445;50.774;4.944;2022-10-31T13:10:35;17.23;;;13.73;;
14708;SDS011;7445;50.774;4.944;2022-10-31T13:12:34;21.37;;;13.97;;
14708;SDS011;7445;50.774;4.944;2022-10-31T13:15:05;18.67;;;15.03;;
14708;SDS011;7445;50.774;4.944;2022-10-31T13:18:05;17.53;;;14.07;;
14708;SDS011;7445;50.774;4.944;2022-10-31T13:20:44;22.87;;;13.83;;
14708;SDS011;7445;50.774;4.944;2022-10-31T13:25:59;21.50;;;15.87;;
14708;SDS011;7445;50.774;4.944;2022-10-31T13:28:43;18.80;;;14.67;;
14708;SDS011;7445;50.774;4.944;2022-10-31T13:31:29;20.43;;;14.83;;
14708;SDS011;7445;50.774;4.944;2022-10-31T13:33:59;18.57;;;14.77;;
14708;SDS011;7445;50.774;4.944;2022-10-31T13:41:52;18.97;;;16.50;;
14708;SDS011;7445;50.774;4.944;2022-10-31T13:44:28;17.47;;;15.53;;
14708;SDS011;7445;50.774;4.944;2022-10-31T13:46:56;20.73;;;14.70;;
14708;SDS011;7445;50.774;4.944;2022-10-31T13:54:50;15.70;;;13.97;;
14708;SDS011;7445;50.774;4.944;2022-10-31T13:58:25;27.50;;;17.63;;
14708;SDS011;7445;50.774;4.944;2022-10-31T14:03:28;30.27;;;18.13;;
14708;SDS011;7445;50.774;4.944;2022-10-31T14:05:57;35.77;;;17.47;;
14708;SDS011;7445;50.774;4.944;2022-10-31T14:08:23;18.83;;;14.67;;
14708;SDS011;7445;50.774;4.944;2022-10-31T14:10:50;17.20;;;13.53;;
